Time;durP1;ratioP1;P1;durP2;ratioP2;P2;SDS_P1;SDS_P2;PMS_P1;PMS_P2;Temp;Humidity;BMP_temperature;BMP_pressure;BME280_temperature;BME280_humidity;BME280_pressure;Samples;Min_cycle;Max_cycle;Signal;HPM_P1;HPM_P2
2021/06/15 00:01:33;;;;;;;5.57;2.40;;;26.30;62.70;;;;;;5091323;23;20021;-74
2021/06/15 00:03:36;;;;;;;6.45;2.67;;;26.30;62.70;;;;;;5090480;23;20047;-76
2021/06/15 00:05:40;;;;;;;6.40;2.45;;;26.20;62.60;;;;;;5090877;23;20029;-73
2021/06/15 00:07:44;;;;;;;7.72;2.50;;;26.30;62.40;;;;;;5090198;23;20347;-74
2021/06/15 00:09:47;;;;;;;5.40;2.50;;;26.30;63.00;;;;;;5090763;23;20028;-73
2021/06/15 00:11:50;;;;;;;6.28;2.75;;;26.30;63.00;;;;;;5090633;23;20022;-77
2021/06/15 00:13:53;;;;;;;8.27;2.78;;;26.30;62.70;;;;;;5090432;23;20091;-73
2021/06/15 00:15:56;;;;;;;6.28;2.40;;;26.30;63.60;;;;;;5090327;23;20033;-75
2021/06/15 00:17:59;;;;;;;6.88;2.80;;;26.20;63.30;;;;;;5090822;23;20021;-75
2021/06/15 00:20:04;;;;;;;4.00;2.63;;;26.10;63.40;;;;;;5090825;23;20017;-74
2021/06/15 00:22:08;;;;;;;6.50;2.50;;;26.10;63.40;;;;;;5090444;23;20022;-73
2021/06/15 00:24:12;;;;;;;7.38;2.83;;;26.20;63.10;;;;;;5090979;23;20030;-74
2021/06/15 00:26:15;;;;;;;4.28;2.67;;;26.20;63.70;;;;;;5090878;23;20017;-75
2021/06/15 00:28:19;;;;;;;6.95;3.03;;;26.10;63.30;;;;;;5090638;23;20029;-73
2021/06/15 00:30:22;;;;;;;10.73;3.30;;;26.10;63.30;;;;;;5090312;23;20459;-76
2021/06/15 00:32:26;;;;;;;10.55;3.17;;;26.10;63.70;;;;;;5090315;23;20084;-75
2021/06/15 00:34:30;;;;;;;11.98;3.72;;;26.20;63.90;;;;;;5090551;23;20079;-73
2021/06/15 00:36:33;;;;;;;12.68;4.00;;;26.20;63.50;;;;;;5090464;23;20164;-74
2021/06/15 00:38:37;;;;;;;13.43;4.60;;;26.20;64.70;;;;;;5090203;23;20025;-75
2021/06/15 00:40:40;;;;;;;14.55;4.90;;;26.10;65.50;;;;;;5090049;23;20101;-75
2021/06/15 00:42:44;;;;;;;14.60;5.70;;;26.00;66.40;;;;;;5090264;23;20025;-76
2021/06/15 00:44:47;;;;;;;12.68;5.40;;;25.90;66.50;;;;;;5090793;23;20024;-74
2021/06/15 00:46:50;;;;;;;18.00;5.82;;;25.80;66.90;;;;;;5090398;23;20018;-75
2021/06/15 00:48:53;;;;;;;14.63;5.80;;;25.80;67.80;;;;;;5090324;23;20055;-75
2021/06/15 00:50:56;;;;;;;13.40;5.60;;;25.70;68.20;;;;;;5088800;23;20021;-75
2021/06/15 00:52:59;;;;;;;14.20;5.85;;;25.70;67.60;;;;;;5090106;23;20523;-76
2021/06/15 00:55:04;;;;;;;12.10;5.63;;;25.60;67.90;;;;;;5090366;23;20021;-74
2021/06/15 00:57:15;;;;;;;19.73;6.15;;;25.70;68.20;;;;;;5090078;23;20447;-75
2021/06/15 00:59:18;;;;;;;13.85;5.63;;;25.70;69.10;;;;;;5090490;23;20076;-73
2021/06/15 01:01:23;;;;;;;10.70;5.35;;;25.60;69.00;;;;;;5090510;23;20073;-73
2021/06/15 01:03:27;;;;;;;;;;;25.70;68.20;;;;;;5093248;23;20028;-74
2021/06/15 01:05:29;;;;;;;18.10;5.55;;;25.60;68.80;;;;;;5092053;23;19916;-75
2021/06/15 01:07:36;;;;;;;11.73;5.20;;;25.70;68.10;;;;;;5092187;23;20487;-74
2021/06/15 01:09:45;;;;;;;14.48;5.38;;;25.70;68.60;;;;;;5091326;23;20523;-75
2021/06/15 01:11:57;;;;;;;13.63;4.57;;;25.70;68.40;;;;;;5092259;23;20021;-75
2021/06/15 01:14:10;;;;;;;14.07;5.75;;;25.70;68.20;;;;;;5091886;23;20041;-75
2021/06/15 01:16:22;;;;;;;13.60;5.43;;;25.40;70.00;;;;;;5091902;23;20028;-74
2021/06/15 01:18:26;;;;;;;17.33;5.88;;;25.30;69.50;;;;;;5091567;23;20026;-74
2021/06/15 01:20:34;;;;;;;13.27;5.25;;;25.30;71.00;;;;;;5092201;23;20044;-75
2021/06/15 01:23:13;;;;;;;11.32;4.80;;;25.40;70.80;;;;;;5091842;23;20018;-74
2021/06/15 01:25:22;;;;;;;13.50;4.80;;;25.40;70.20;;;;;;5091914;23;20387;-73
2021/06/15 01:27:49;;;;;;;17.52;5.55;;;25.50;69.50;;;;;;5092055;23;20072;-72
2021/06/15 01:29:55;;;;;;;16.10;4.88;;;25.50;69.60;;;;;;5091789;23;20097;-75
2021/06/15 01:32:04;;;;;;;13.70;4.57;;;25.50;69.80;;;;;;5092142;23;20025;-75
2021/06/15 01:34:09;;;;;;;15.48;4.70;;;25.50;70.00;;;;;;5091937;23;20026;-75
2021/06/15 01:36:16;;;;;;;9.80;4.30;;;25.40;70.60;;;;;;5091759;23;20072;-75
2021/06/15 01:38:25;;;;;;;11.40;4.47;;;25.40;69.70;;;;;;5092147;23;20044;-75
2021/06/15 01:40:36;;;;;;;10.90;4.10;;;25.40;69.30;;;;;;5091954;23;20021;-75
2021/06/15 01:42:45;;;;;;;11.05;4.22;;;25.40;70.30;;;;;;5092078;23;20018;-75
2021/06/15 01:44:52;;;;;;;13.40;4.05;;;25.40;70.30;;;;;;5091271;23;20520;-76
2021/06/15 01:47:02;;;;;;;13.20;3.97;;;25.20;71.40;;;;;;5091457;23;20025;-73
2021/06/15 01:49:10;;;;;;;7.32;3.38;;;25.20;70.70;;;;;;5091691;23;20394;-72
2021/06/15 01:51:15;;;;;;;15.15;3.90;;;25.00;71.60;;;;;;5091776;23;20021;-75
2021/06/15 01:53:20;;;;;;;12.18;3.97;;;24.90;72.50;;;;;;5091794;23;20022;-74
2021/06/15 01:55:25;;;;;;;11.48;3.70;;;24.80;73.10;;;;;;5091469;23;20022;-74
2021/06/15 01:57:29;;;;;;;8.88;3.65;;;24.60;74.30;;;;;;5091950;23;20407;-74
2021/06/15 01:59:36;;;;;;;10.82;3.78;;;24.60;74.70;;;;;;5091813;23;20088;-74
2021/06/15 02:01:44;;;;;;;6.88;3.42;;;24.60;74.60;;;;;;5091514;23;20021;-75
2021/06/15 02:03:47;;;;;;;11.43;4.00;;;24.60;74.90;;;;;;5091699;23;20096;-74
2021/06/15 02:05:54;;;;;;;5.65;3.10;;;24.70;74.40;;;;;;5092112;23;20017;-75
2021/06/15 02:08:01;;;;;;;7.03;3.38;;;24.60;74.60;;;;;;5093425;23;20029;-74
2021/06/15 02:10:08;;;;;;;8.57;4.10;;;24.50;76.00;;;;;;5093531;23;20017;-75
2021/06/15 02:12:13;;;;;;;6.20;3.70;;;24.60;76.50;;;;;;5093464;23;20021;-74
2021/06/15 02:14:18;;;;;;;;;;;24.50;76.80;;;;;;5092127;23;20021;-73
2021/06/15 02:16:23;;;;;;;7.35;3.55;;;24.50;77.00;;;;;;5089854;23;19920;-74
2021/06/15 02:18:30;;;;;;;8.00;3.30;;;24.50;77.20;;;;;;5091551;23;20027;-75
2021/06/15 02:20:37;;;;;;;6.80;3.70;;;24.40;77.60;;;;;;5091325;23;20084;-74
2021/06/15 02:22:45;;;;;;;7.55;3.40;;;24.30;77.70;;;;;;5091144;23;20088;-74
2021/06/15 02:24:57;;;;;;;7.93;3.63;;;24.30;78.20;;;;;;5091286;23;20080;-75
2021/06/15 02:27:02;;;;;;;6.00;3.10;;;24.10;78.60;;;;;;5091069;23;20100;-74
2021/06/15 02:29:05;;;;;;;7.07;2.92;;;24.10;78.60;;;;;;5091491;23;20059;-74
2021/06/15 02:31:12;;;;;;;9.30;3.58;;;24.20;77.60;;;;;;5090997;23;20028;-74
2021/06/15 02:33:22;;;;;;;13.07;3.95;;;24.20;78.60;;;;;;5091190;23;20021;-73
2021/06/15 02:35:26;;;;;;;6.55;3.40;;;24.20;77.90;;;;;;5091022;23;20026;-73
2021/06/15 02:37:34;;;;;;;7.22;3.13;;;24.20;77.70;;;;;;5091082;23;20025;-75
2021/06/15 02:39:38;;;;;;;10.85;3.33;;;24.20;78.10;;;;;;5091185;23;20013;-74
2021/06/15 02:41:43;;;;;;;4.82;3.20;;;24.10;78.20;;;;;;5090116;23;20029;-74
2021/06/15 02:43:49;;;;;;;7.47;3.38;;;24.00;79.00;;;;;;5090907;23;20021;-74
2021/06/15 02:45:54;;;;;;;7.75;3.97;;;24.10;78.80;;;;;;5091436;23;20462;-73
2021/06/15 02:48:00;;;;;;;8.25;3.80;;;23.80;79.90;;;;;;5091479;23;20339;-74
2021/06/15 02:50:07;;;;;;;9.65;3.60;;;23.60;80.30;;;;;;5090722;23;20080;-74
2021/06/15 02:52:13;;;;;;;7.35;3.50;;;23.60;80.80;;;;;;5091026;23;20025;-74
2021/06/15 02:54:21;;;;;;;5.45;3.78;;;23.50;81.60;;;;;;5090956;23;20441;-74
2021/06/15 02:56:27;;;;;;;7.15;3.85;;;23.60;80.20;;;;;;5089808;23;20025;-74
2021/06/15 02:58:31;;;;;;;10.02;3.70;;;23.70;79.90;;;;;;5091035;23;20029;-73
2021/06/15 03:00:34;;;;;;;11.82;3.53;;;23.60;81.50;;;;;;5090953;23;20091;-75
2021/06/15 03:02:37;;;;;;;5.88;3.70;;;23.50;80.90;;;;;;5091275;23;20097;-74
2021/06/15 03:04:45;;;;;;;12.57;4.03;;;23.60;80.00;;;;;;5092549;23;20490;-74
2021/06/15 03:06:50;;;;;;;10.18;3.75;;;23.50;80.70;;;;;;5091653;23;20053;-74
2021/06/15 03:08:53;;;;;;;8.18;3.88;;;23.50;81.10;;;;;;5091407;23;20047;-74
2021/06/15 03:10:56;;;;;;;9.20;4.10;;;23.50;79.40;;;;;;5092178;23;20047;-74
2021/06/15 03:13:03;;;;;;;5.15;3.03;;;23.60;79.80;;;;;;5091419;23;20017;-74
2021/06/15 03:15:09;;;;;;;9.20;3.60;;;23.60;78.80;;;;;;5091459;23;20058;-74
2021/06/15 03:17:13;;;;;;;6.70;3.20;;;23.60;78.10;;;;;;5091432;23;20028;-74
2021/06/15 03:19:21;;;;;;;7.13;3.42;;;23.70;77.80;;;;;;5090972;23;20443;-73
2021/06/15 03:21:26;;;;;;;7.80;3.72;;;23.70;77.80;;;;;;5090826;23;20021;-73
2021/06/15 03:23:44;;;;;;;10.20;3.90;;;23.60;79.30;;;;;;5091122;23;20017;-74
2021/06/15 03:25:49;;;;;;;13.07;3.78;;;23.60;77.80;;;;;;5090748;23;20363;-74
2021/06/15 03:27:56;;;;;;;13.45;3.85;;;23.70;78.90;;;;;;5090663;23;20021;-72
2021/06/15 03:30:05;;;;;;;6.10;3.63;;;23.60;78.40;;;;;;5090967;23;20021;-72
2021/06/15 03:32:12;;;;;;;9.38;3.97;;;23.60;77.60;;;;;;5091695;23;20083;-72
2021/06/15 03:34:19;;;;;;;10.90;3.63;;;23.70;77.80;;;;;;5090981;23;20022;-73
2021/06/15 03:36:24;;;;;;;10.20;3.78;;;23.70;77.30;;;;;;5090789;23;20028;-74
2021/06/15 03:38:29;;;;;;;12.18;4.40;;;23.60;77.20;;;;;;5090623;23;20088;-72
2021/06/15 03:40:40;;;;;;;9.00;3.53;;;23.50;77.90;;;;;;5090410;23;20018;-73
2021/06/15 03:42:43;;;;;;;8.20;4.20;;;23.50;78.00;;;;;;5090553;23;20087;-72
2021/06/15 03:44:50;;;;;;;13.30;4.95;;;23.50;77.20;;;;;;5090951;23;20379;-75
2021/06/15 03:46:56;;;;;;;9.13;4.32;;;23.50;78.30;;;;;;5090541;23;20509;-74
2021/06/15 03:49:03;;;;;;;8.70;4.68;;;23.50;78.20;;;;;;5090872;23;20032;-74
2021/06/15 03:51:11;;;;;;;12.23;4.93;;;23.50;78.20;;;;;;5090807;23;20415;-74
2021/06/15 03:53:16;;;;;;;10.65;4.30;;;23.40;79.30;;;;;;5090348;23;20084;-74
2021/06/15 03:55:21;;;;;;;;;;;23.40;80.20;;;;;;5091150;23;20367;-74
2021/06/15 03:57:26;;;;;;;7.35;4.18;;;23.20;80.40;;;;;;5090564;23;20230;-74
2021/06/15 03:59:32;;;;;;;9.30;4.80;;;23.30;80.20;;;;;;5090906;23;20028;-73
2021/06/15 04:01:38;;;;;;;8.13;3.97;;;23.20;81.00;;;;;;5090551;23;20072;-75
2021/06/15 04:03:42;;;;;;;8.50;4.70;;;23.20;79.20;;;;;;5090826;23;20027;-73
2021/06/15 04:05:47;;;;;;;13.00;5.25;;;23.20;79.50;;;;;;5090586;23;20025;-74
2021/06/15 04:07:51;;;;;;;5.72;4.43;;;23.10;80.60;;;;;;5088772;23;20026;-75
2021/06/15 04:09:55;;;;;;;8.57;4.85;;;23.00;81.10;;;;;;5089149;23;20021;-73
2021/06/15 04:12:00;;;;;;;6.68;4.30;;;22.90;81.70;;;;;;5090458;23;20022;-73
2021/06/15 04:14:08;;;;;;;9.57;4.55;;;22.90;79.80;;;;;;5090656;23;20025;-75
2021/06/15 04:16:14;;;;;;;8.35;4.72;;;22.90;81.50;;;;;;5092725;23;20419;-74
2021/06/15 04:18:20;;;;;;;9.00;4.60;;;23.00;80.70;;;;;;5092519;23;20088;-75
2021/06/15 04:20:26;;;;;;;13.85;5.13;;;22.90;81.50;;;;;;5092079;23;20395;-75
2021/06/15 04:22:32;;;;;;;10.35;5.15;;;22.90;82.30;;;;;;5090633;23;20057;-75
2021/06/15 04:24:37;;;;;;;13.80;4.90;;;22.90;81.40;;;;;;5090546;23;20399;-75
2021/06/15 04:26:40;;;;;;;12.85;4.97;;;22.90;81.30;;;;;;5090124;23;20022;-76
2021/06/15 04:28:44;;;;;;;9.32;4.88;;;23.00;80.90;;;;;;5090548;23;20029;-74
2021/06/15 04:30:50;;;;;;;15.13;4.93;;;23.00;79.80;;;;;;5090163;23;20094;-73
2021/06/15 04:32:56;;;;;;;10.93;5.35;;;23.00;80.10;;;;;;5090716;23;20099;-73
2021/06/15 04:35:03;;;;;;;9.85;5.43;;;23.10;80.70;;;;;;5090290;23;20037;-75
2021/06/15 04:37:10;;;;;;;14.25;4.85;;;23.10;79.80;;;;;;5090138;23;20402;-73
2021/06/15 04:39:15;;;;;;;16.33;6.20;;;23.00;80.90;;;;;;5090206;23;20085;-75
2021/06/15 04:41:22;;;;;;;19.13;6.18;;;22.70;81.90;;;;;;5090022;23;20079;-75
2021/06/15 04:43:31;;;;;;;19.65;5.70;;;22.60;82.00;;;;;;5089477;23;20040;-75
2021/06/15 04:45:44;;;;;;;15.30;6.15;;;22.80;81.00;;;;;;5090153;23;20317;-75
2021/06/15 04:48:01;;;;;;;24.05;5.78;;;22.80;81.90;;;;;;5090063;23;20092;-74
2021/06/15 04:50:12;;;;;;;23.58;6.50;;;22.60;82.50;;;;;;5090043;23;20022;-75
2021/06/15 04:52:19;;;;;;;31.67;6.70;;;22.60;82.10;;;;;;5090180;23;20041;-74
2021/06/15 04:54:23;;;;;;;23.13;5.43;;;22.50;82.70;;;;;;5089900;23;20025;-73
2021/06/15 04:56:30;;;;;;;17.60;6.15;;;22.60;81.60;;;;;;5088428;23;20348;-73
2021/06/15 04:58:34;;;;;;;20.17;6.03;;;22.60;82.00;;;;;;5090286;23;20017;-76
2021/06/15 05:00:39;;;;;;;24.27;5.90;;;22.70;80.60;;;;;;5091000;23;20073;-75
2021/06/15 05:02:43;;;;;;;21.73;6.00;;;22.80;81.30;;;;;;5090514;23;20017;-74
2021/06/15 05:04:48;;;;;;;;;;;22.70;81.30;;;;;;5090646;23;20455;-74
2021/06/15 05:06:52;;;;;;;36.25;6.68;;;22.60;81.90;;;;;;5089512;23;19920;-73
2021/06/15 05:08:59;;;;;;;16.65;6.80;;;22.60;82.10;;;;;;5090218;23;20088;-74
2021/06/15 05:11:03;;;;;;;22.27;6.47;;;22.70;81.80;;;;;;5090149;23;20022;-73
2021/06/15 05:13:09;;;;;;;18.83;6.70;;;22.70;81.70;;;;;;5090391;23;20025;-73
2021/06/15 05:15:14;;;;;;;20.75;6.70;;;22.60;82.00;;;;;;5090540;23;20502;-75
2021/06/15 05:17:21;;;;;;;18.50;7.07;;;22.60;82.50;;;;;;5090262;23;20028;-73
2021/06/15 05:19:24;;;;;;;23.20;6.20;;;22.50;83.60;;;;;;5091621;23;20384;-76
2021/06/15 05:21:39;;;;;;;26.13;6.90;;;22.60;82.60;;;;;;5092402;23;20080;-74
2021/06/15 05:23:46;;;;;;;14.43;5.95;;;22.70;82.20;;;;;;5091808;23;20017;-77
2021/06/15 05:25:49;;;;;;;24.23;7.18;;;22.80;80.50;;;;;;5090538;23;20018;-74
2021/06/15 05:27:53;;;;;;;20.73;6.75;;;22.90;80.80;;;;;;5088433;23;20120;-74
2021/06/15 05:29:56;;;;;;;17.35;6.30;;;22.90;80.70;;;;;;5090254;23;20028;-74
2021/06/15 05:32:03;;;;;;;28.13;6.43;;;22.90;80.00;;;;;;5090317;23;20022;-75
2021/06/15 05:34:06;;;;;;;38.00;7.28;;;22.80;80.30;;;;;;5090079;23;20026;-75
2021/06/15 05:36:09;;;;;;;18.52;6.15;;;22.90;80.10;;;;;;5090103;23;20025;-73
2021/06/15 05:38:15;;;;;;;25.17;6.07;;;23.00;79.00;;;;;;5089935;23;20490;-73
2021/06/15 05:40:19;;;;;;;23.98;6.05;;;23.00;79.10;;;;;;5090059;23;20448;-72
2021/06/15 05:42:22;;;;;;;30.20;6.43;;;22.90;78.70;;;;;;5089784;23;20021;-75
2021/06/15 05:44:26;;;;;;;30.17;5.80;;;22.90;78.50;;;;;;5090322;23;20403;-75
2021/06/15 05:46:29;;;;;;;19.02;6.20;;;22.80;78.00;;;;;;5090937;23;20025;-74
2021/06/15 05:48:32;;;;;;;18.88;6.28;;;22.80;77.90;;;;;;5089956;23;20022;-75
2021/06/15 05:50:35;;;;;;;19.60;6.03;;;22.60;77.60;;;;;;5089993;23;20336;-72
2021/06/15 05:52:38;;;;;;;23.05;6.32;;;22.60;78.10;;;;;;5089735;23;20022;-73
2021/06/15 05:54:43;;;;;;;23.30;6.32;;;22.70;77.70;;;;;;5090026;23;20021;-73
2021/06/15 05:56:46;;;;;;;12.73;5.70;;;22.60;77.60;;;;;;5091387;23;20419;-75
2021/06/15 05:58:49;;;;;;;17.85;6.13;;;22.70;77.60;;;;;;5091544;23;20084;-76
2021/06/15 06:00:52;;;;;;;22.98;7.07;;;22.60;77.50;;;;;;5091592;23;20017;-73
2021/06/15 06:02:55;;;;;;;16.50;5.93;;;22.60;77.90;;;;;;5091489;23;20642;-75
2021/06/15 06:09:23;;;;;;;25.88;5.75;;;22.60;78.20;;;;;;5091616;23;20025;-76
2021/06/15 06:11:27;;;;;;;23.65;5.70;;;22.60;77.00;;;;;;5091819;23;20071;-73
2021/06/15 06:13:31;;;;;;;22.17;5.35;;;22.80;76.40;;;;;;5090779;23;20018;-73
2021/06/15 06:15:34;;;;;;;48.00;9.98;;;22.80;76.50;;;;;;5092719;23;20028;-74
2021/06/15 06:17:40;;;;;;;19.75;5.47;;;22.80;76.10;;;;;;5093107;23;20025;-75
2021/06/15 06:19:49;;;;;;;22.02;6.05;;;23.00;75.20;;;;;;5093741;23;20029;-78
2021/06/15 06:21:53;;;;;;;20.63;5.80;;;23.00;75.90;;;;;;5090623;23;20060;-77
2021/06/15 06:23:56;;;;;;;16.88;6.63;;;23.00;75.60;;;;;;5092420;23;20029;-77
2021/06/15 06:25:59;;;;;;;89.40;20.98;;;23.10;75.20;;;;;;5093117;23;20048;-75
2021/06/15 06:28:04;;;;;;;40.13;10.05;;;23.20;75.40;;;;;;5093441;23;20403;-75
2021/06/15 06:30:08;;;;;;;22.92;6.18;;;23.40;74.80;;;;;;5092052;23;20021;-74
2021/06/15 06:32:11;;;;;;;22.55;6.22;;;23.30;75.00;;;;;;5090978;23;20032;-74
2021/06/15 06:34:15;;;;;;;21.92;6.25;;;23.40;74.90;;;;;;5091289;23;20018;-74
2021/06/15 06:36:18;;;;;;;18.65;5.47;;;23.40;73.60;;;;;;5091553;23;20021;-73
2021/06/15 06:38:21;;;;;;;17.02;5.70;;;23.60;73.70;;;;;;5089690;23;20471;-75
2021/06/15 06:40:25;;;;;;;29.08;6.20;;;23.60;73.40;;;;;;5091268;23;20022;-73
2021/06/15 06:42:28;;;;;;;21.15;5.60;;;23.60;73.60;;;;;;5092058;23;20021;-73
2021/06/15 06:44:33;;;;;;;10.10;4.75;;;23.70;73.50;;;;;;5090533;23;20022;-77
2021/06/15 06:46:36;;;;;;;18.75;4.60;;;23.80;72.60;;;;;;5092205;23;20493;-76
2021/06/15 06:48:39;;;;;;;15.88;4.80;;;23.90;71.90;;;;;;5091214;23;20092;-73
2021/06/15 06:50:42;;;;;;;18.90;4.88;;;23.90;72.30;;;;;;5091778;23;20025;-74
2021/06/15 06:52:45;;;;;;;12.23;5.15;;;23.90;72.40;;;;;;5091686;23;20072;-76
2021/06/15 06:54:48;;;;;;;21.58;5.38;;;23.90;71.50;;;;;;5091643;23;20506;-77
2021/06/15 06:56:51;;;;;;;17.92;5.78;;;23.80;71.50;;;;;;5091058;23;20021;-78
2021/06/15 06:58:54;;;;;;;22.55;5.63;;;23.90;71.60;;;;;;5091057;23;20482;-77
2021/06/15 07:00:59;;;;;;;19.38;5.07;;;24.00;71.70;;;;;;5089176;23;20594;-77
2021/06/15 07:03:02;;;;;;;33.80;6.03;;;24.10;71.10;;;;;;5090920;23;20347;-76
2021/06/15 07:05:06;;;;;;;31.70;6.50;;;23.90;71.60;;;;;;5091374;23;20021;-73
2021/06/15 07:07:10;;;;;;;27.00;5.45;;;24.00;71.70;;;;;;5090584;23;20092;-76
2021/06/15 07:09:13;;;;;;;40.47;7.55;;;24.10;71.50;;;;;;5090021;23;20444;-76
2021/06/15 07:11:17;;;;;;;48.47;7.50;;;24.20;71.60;;;;;;5090900;23;20021;-74
2021/06/15 07:13:23;;;;;;;51.55;7.97;;;24.20;71.40;;;;;;5090677;23;20080;-76
2021/06/15 07:15:26;;;;;;;39.35;7.13;;;24.00;71.20;;;;;;5091204;23;20022;-74
2021/06/15 07:17:31;;;;;;;36.63;6.43;;;24.10;71.90;;;;;;5091125;23;20092;-74
2021/06/15 07:19:35;;;;;;;39.95;6.63;;;24.30;71.40;;;;;;5090962;23;20072;-75
2021/06/15 07:21:38;;;;;;;35.50;6.45;;;24.50;71.90;;;;;;5090624;23;20029;-75
2021/06/15 07:23:41;;;;;;;48.53;6.97;;;24.70;72.00;;;;;;5090541;23;20022;-73
2021/06/15 07:25:45;;;;;;;33.70;6.40;;;24.80;70.50;;;;;;5091779;23;20018;-74
2021/06/15 07:27:48;;;;;;;21.00;5.93;;;25.00;70.10;;;;;;5091272;23;20022;-73
2021/06/15 07:29:51;;;;;;;34.83;6.88;;;25.20;69.80;;;;;;5093937;23;20088;-75
2021/06/15 07:31:55;;;;;;;35.40;6.47;;;25.30;70.00;;;;;;5092772;23;20021;-76
2021/06/15 07:34:01;;;;;;;36.42;6.70;;;25.10;69.60;;;;;;5091761;23;20395;-76
2021/06/15 07:36:05;;;;;;;;;;;25.20;70.20;;;;;;5091274;23;20076;-75
2021/06/15 07:38:08;;;;;;;39.72;7.03;;;25.30;69.90;;;;;;5090331;23;19976;-74
2021/06/15 07:40:11;;;;;;;31.20;6.22;;;25.20;70.10;;;;;;5088923;23;20025;-72
2021/06/15 07:42:15;;;;;;;30.25;6.57;;;25.40;69.90;;;;;;5090952;23;20021;-74
2021/06/15 07:44:18;;;;;;;30.73;6.35;;;25.50;68.30;;;;;;5091028;23;20478;-72
2021/06/15 07:46:21;;;;;;;29.73;6.55;;;25.60;67.90;;;;;;5090559;23;20021;-73
2021/06/15 07:48:24;;;;;;;23.50;6.35;;;25.60;68.20;;;;;;5090673;23;20026;-73
2021/06/15 07:50:29;;;;;;;132.15;9.07;;;25.70;68.20;;;;;;5090456;23;20041;-75
2021/06/15 07:52:34;;;;;;;50.17;8.45;;;26.00;68.60;;;;;;5064547;23;20022;-73
2021/06/15 07:54:37;;;;;;;30.38;6.00;;;26.10;67.60;;;;;;5089054;23;20092;-75
2021/06/15 07:56:40;;;;;;;20.67;6.05;;;26.10;67.90;;;;;;5090509;23;20025;-73
2021/06/15 07:58:43;;;;;;;21.85;4.97;;;25.90;66.80;;;;;;5090072;23;20022;-73
2021/06/15 08:00:46;;;;;;;26.05;5.55;;;26.00;66.60;;;;;;5090994;23;20033;-76
2021/06/15 08:02:50;;;;;;;25.92;6.25;;;26.10;65.80;;;;;;5090912;23;20072;-73
2021/06/15 08:04:54;;;;;;;27.00;5.90;;;26.00;66.80;;;;;;5090789;23;20029;-74
2021/06/15 08:06:59;;;;;;;15.75;5.90;;;26.00;66.70;;;;;;5090639;23;20084;-73
2021/06/15 08:09:02;;;;;;;21.05;5.57;;;25.80;66.50;;;;;;5090194;23;20025;-74
2021/06/15 08:11:05;;;;;;;19.23;5.78;;;25.80;66.60;;;;;;5090377;23;20073;-74
2021/06/15 08:13:08;;;;;;;25.40;6.50;;;25.90;66.30;;;;;;5090198;23;20092;-73
2021/06/15 08:15:12;;;;;;;33.80;6.22;;;26.00;66.00;;;;;;5090291;23;20030;-74
2021/06/15 08:17:15;;;;;;;34.92;7.13;;;26.10;65.90;;;;;;5090698;23;20021;-76
2021/06/15 08:19:18;;;;;;;22.85;5.15;;;26.10;66.40;;;;;;5090122;23;20026;-75
2021/06/15 08:21:21;;;;;;;28.75;6.82;;;26.30;66.50;;;;;;5064764;23;20367;-74
2021/06/15 08:23:26;;;;;;;30.67;6.05;;;26.30;66.40;;;;;;5090618;23;20103;-73
2021/06/15 08:25:29;;;;;;;31.98;6.78;;;26.40;66.30;;;;;;5091242;23;20021;-75
2021/06/15 08:27:36;;;;;;;30.60;7.03;;;26.50;65.30;;;;;;5091195;23;20434;-75
2021/06/15 08:29:39;;;;;;;27.05;7.28;;;26.40;64.60;;;;;;5089188;23;20022;-75
2021/06/15 08:31:43;;;;;;;20.90;6.28;;;26.40;65.30;;;;;;5091243;23;20025;-76
2021/06/15 08:33:46;;;;;;;25.85;7.90;;;26.40;65.60;;;;;;5091980;23;20025;-76
2021/06/15 08:35:49;;;;;;;52.38;8.40;;;26.60;64.90;;;;;;5093394;23;20025;-73
2021/06/15 08:37:52;;;;;;;49.67;7.65;;;26.70;64.80;;;;;;5092660;23;20018;-76
2021/06/15 08:39:56;;;;;;;32.58;7.75;;;26.90;65.10;;;;;;5091537;23;20025;-74
2021/06/15 08:41:59;;;;;;;29.15;6.50;;;27.00;64.30;;;;;;5090598;23;20037;-74
2021/06/15 08:44:03;;;;;;;33.20;7.78;;;27.20;63.90;;;;;;5089798;23;20030;-74
2021/06/15 08:46:06;;;;;;;27.52;6.15;;;27.10;63.80;;;;;;5090665;23;20021;-73
2021/06/15 08:48:10;;;;;;;21.77;5.97;;;27.00;63.50;;;;;;5090234;23;20025;-76
2021/06/15 08:50:18;;;;;;;27.02;6.38;;;27.10;64.00;;;;;;5090667;23;20572;-76
2021/06/15 08:52:26;;;;;;;26.52;6.72;;;27.20;63.90;;;;;;5090739;23;20375;-73
2021/06/15 08:54:30;;;;;;;23.08;6.30;;;27.30;63.50;;;;;;5090278;23;20403;-75
2021/06/15 08:56:36;;;;;;;35.47;6.82;;;27.20;63.90;;;;;;5089430;23;20021;-73
2021/06/15 08:58:45;;;;;;;34.40;6.55;;;27.20;63.90;;;;;;5090205;23;20549;-76
2021/06/15 09:00:48;;;;;;;31.60;6.55;;;27.20;63.90;;;;;;5090394;23;20026;-76
2021/06/15 09:02:51;;;;;;;21.77;6.00;;;27.30;63.70;;;;;;5090549;23;20020;-77
2021/06/15 09:04:54;;;;;;;20.80;6.30;;;27.30;63.00;;;;;;5090432;23;20451;-73
2021/06/15 09:07:00;;;;;;;23.33;6.35;;;27.20;63.50;;;;;;5090500;23;20026;-78
2021/06/15 09:09:04;;;;;;;26.92;5.75;;;27.30;63.50;;;;;;5089062;23;20025;-73
2021/06/15 09:11:07;;;;;;;23.60;6.47;;;27.40;63.30;;;;;;5089289;23;20022;-73
2021/06/15 09:13:34;;;;;;;38.08;6.15;;;27.50;63.40;;;;;;5090169;23;20029;-74
2021/06/15 09:15:37;;;;;;;29.50;7.32;;;27.50;63.60;;;;;;5090302;23;20038;-73
2021/06/15 09:17:40;;;;;;;26.70;6.72;;;27.40;62.70;;;;;;5090387;23;20339;-75
2021/06/15 09:19:44;;;;;;;22.92;6.47;;;27.50;63.40;;;;;;5090323;23;20025;-73
2021/06/15 09:21:49;;;;;;;23.40;6.50;;;27.70;63.60;;;;;;5090099;23;20489;-76
2021/06/15 09:24:03;;;;;;;25.42;6.20;;;27.90;63.30;;;;;;5090472;23;20542;-74
2021/06/15 09:26:06;;;;;;;24.77;6.80;;;27.80;62.80;;;;;;5090655;23;20041;-77
2021/06/15 09:28:17;;;;;;;26.05;6.20;;;28.10;63.30;;;;;;5090302;23;20713;-77
2021/06/15 09:30:25;;;;;;;25.70;6.82;;;28.30;63.00;;;;;;5091496;23;20087;-77
2021/06/15 09:32:30;;;;;;;21.45;6.00;;;28.40;62.20;;;;;;5093057;23;20021;-77
2021/06/15 09:34:34;;;;;;;22.05;5.93;;;28.60;62.00;;;;;;5093702;23;20021;-75
2021/06/15 09:36:37;;;;;;;33.55;5.85;;;28.70;62.00;;;;;;5092246;23;20025;-76
2021/06/15 09:38:52;;;;;;;29.17;5.65;;;28.80;61.40;;;;;;5094417;23;20431;-76
2021/06/15 09:40:55;;;;;;;17.33;5.60;;;28.90;60.80;;;;;;5092262;23;20418;-76
2021/06/15 09:43:01;;;;;;;28.05;5.57;;;29.10;60.10;;;;;;5090571;23;20018;-76
2021/06/15 09:45:18;;;;;;;27.38;6.07;;;29.20;60.30;;;;;;5092016;23;20021;-77
2021/06/15 09:47:24;;;;;;;30.45;5.03;;;29.30;59.00;;;;;;5091747;23;20018;-76
2021/06/15 09:49:29;;;;;;;25.52;5.20;;;29.30;59.50;;;;;;5092013;23;20017;-74
2021/06/15 09:51:32;;;;;;;28.33;5.60;;;29.40;59.00;;;;;;5091911;23;20018;-76
2021/06/15 09:53:36;;;;;;;34.50;5.13;;;29.50;57.90;;;;;;5092021;23;20021;-76
2021/06/15 09:55:47;;;;;;;18.90;5.28;;;29.50;57.70;;;;;;5091958;23;20024;-75
2021/06/15 09:57:51;;;;;;;18.83;5.60;;;29.50;58.20;;;;;;5092117;23;20037;-76
2021/06/15 10:00:00;;;;;;;16.05;4.93;;;29.40;58.10;;;;;;5066286;23;20017;-76
2021/06/15 10:02:04;;;;;;;25.13;5.18;;;29.50;57.70;;;;;;5091899;23;20026;-76
2021/06/15 10:04:12;;;;;;;15.93;5.30;;;29.30;57.80;;;;;;5092191;23;20021;-76
2021/06/15 10:06:33;;;;;;;14.50;4.60;;;29.30;57.20;;;;;;5091693;23;20029;-76
2021/06/15 10:08:43;;;;;;;9.95;4.13;;;29.20;57.50;;;;;;5091976;23;20037;-76
2021/06/15 10:10:53;;;;;;;13.70;4.88;;;29.30;57.20;;;;;;5092220;23;20024;-76
2021/06/15 10:12:56;;;;;;;12.82;4.47;;;29.20;55.90;;;;;;5090466;23;20356;-74
2021/06/15 10:15:01;;;;;;;14.73;4.65;;;29.10;56.60;;;;;;5091703;23;20021;-75
2021/06/15 10:17:05;;;;;;;17.65;4.97;;;29.10;57.10;;;;;;5091770;23;20076;-75
2021/06/15 10:19:10;;;;;;;18.55;6.03;;;29.10;57.30;;;;;;5091609;23;20029;-75
2021/06/15 10:21:15;;;;;;;14.07;5.13;;;29.10;57.00;;;;;;5092058;23;20099;-76
2021/06/15 10:23:18;;;;;;;15.00;4.38;;;29.10;56.50;;;;;;5091516;23;20022;-76
2021/06/15 10:25:24;;;;;;;17.05;4.25;;;29.20;57.00;;;;;;5090401;23;20100;-75
2021/06/15 10:27:27;;;;;;;13.35;4.80;;;29.10;55.90;;;;;;5092726;23;20150;-78
2021/06/15 10:29:31;;;;;;;14.27;5.32;;;29.20;56.40;;;;;;5092127;23;20025;-74
2021/06/15 10:31:34;;;;;;;16.85;4.53;;;29.10;56.80;;;;;;5092322;23;20025;-77
2021/06/15 10:33:42;;;;;;;11.52;5.57;;;29.20;56.20;;;;;;5092310;23;20065;-74
2021/06/15 10:35:47;;;;;;;13.40;4.70;;;29.10;56.10;;;;;;5066860;23;20326;-75
2021/06/15 10:37:52;;;;;;;16.02;4.20;;;29.00;56.30;;;;;;5093102;23;20022;-74
2021/06/15 10:39:55;;;;;;;13.88;4.18;;;29.00;56.20;;;;;;5095099;23;20017;-76
2021/06/15 10:42:10;;;;;;;16.15;5.18;;;29.20;57.40;;;;;;5094979;23;20121;-75
2021/06/15 10:44:14;;;;;;;;;;;29.30;56.60;;;;;;5096021;23;20018;-73
2021/06/15 10:46:34;;;;;;;13.25;4.50;;;29.50;56.30;;;;;;5092680;23;20279;-77
2021/06/15 10:48:46;;;;;;;15.00;5.10;;;29.60;56.20;;;;;;5092328;23;20021;-76
2021/06/15 10:50:56;;;;;;;9.18;3.83;;;29.50;55.20;;;;;;5091221;23;20022;-75
2021/06/15 10:53:05;;;;;;;10.40;4.15;;;29.50;55.80;;;;;;5092399;23;20056;-75